createdAt,value
2023-04-02T00:06:32.504Z,63.70
2023-04-02T00:16:34.683Z,65.06
2023-04-02T00:26:40.893Z,62.58
2023-04-02T00:36:44.056Z,66.35
2023-04-02T00:46:49.709Z,65.23
2023-04-02T00:56:54.452Z,63.76
2023-04-02T01:06:58.375Z,63.35
2023-04-02T01:17:48.818Z,63.71
2023-04-02T01:27:56.567Z,64.01
2023-04-02T01:38:13.760Z,63.61
2023-04-02T01:48:34.217Z,65.30
2023-04-02T01:58:38.029Z,63.90
2023-04-02T02:08:56.833Z,63.52
2023-04-02T02:19:01.638Z,62.32
2023-04-02T02:29:06.824Z,60.46
2023-04-02T02:39:24.722Z,64.33
2023-04-02T02:49:37.865Z,62.19
2023-04-02T02:59:41.695Z,64.60
2023-04-02T03:09:50.975Z,61.05
2023-04-02T03:19:58.201Z,61.98
2023-04-02T03:30:26.591Z,59.35
2023-04-02T03:40:38.278Z,60.84
2023-04-02T03:51:04.387Z,60.64
2023-04-02T04:01:18.712Z,61.08
2023-04-02T04:11:33.604Z,62.47
2023-04-02T04:21:39.523Z,63.54
2023-04-02T04:32:13.147Z,60.77
2023-04-02T04:42:22.813Z,62.66
2023-04-02T04:52:34.084Z,59.53
2023-04-02T05:03:17.696Z,59.94
2023-04-02T05:13:41.132Z,59.65
2023-04-02T05:24:28.162Z,61.49
2023-04-02T05:34:33.981Z,60.28
2023-04-02T05:44:42.609Z,58.40
2023-04-02T05:54:56.332Z,59.13
2023-04-02T06:05:20.334Z,59.10
2023-04-02T06:15:23.585Z,58.59
2023-04-02T06:25:38.319Z,64.71
2023-04-02T06:35:46.859Z,58.72
2023-04-02T06:45:53.405Z,59.24
2023-04-02T06:56:32.062Z,58.00
2023-04-02T07:06:35.553Z,57.91
2023-04-02T07:16:40.425Z,57.56
2023-04-02T07:26:43.193Z,56.06
2023-04-02T07:36:46.317Z,57.49
2023-04-02T07:46:48.801Z,54.94
2023-04-02T07:56:51.164Z,54.41
2023-04-02T08:06:53.574Z,56.39
2023-04-02T08:16:56.190Z,55.13
2023-04-02T08:26:58.948Z,53.31
2023-04-02T08:37:01.800Z,53.17
2023-04-02T08:47:06.690Z,55.14
2023-04-02T08:57:23.795Z,53.86
2023-04-02T09:07:26.949Z,52.32
2023-04-02T09:17:36.873Z,52.60
2023-04-02T09:27:49.157Z,52.74
2023-04-02T09:38:19.972Z,50.82
2023-04-02T09:48:32.422Z,51.99
2023-04-02T09:58:34.494Z,53.39
2023-04-02T10:08:38.930Z,51.54
2023-04-02T10:19:16.966Z,50.95
2023-04-02T10:29:21.309Z,52.22
2023-04-02T10:39:39.942Z,47.49
2023-04-02T10:49:51.252Z,49.32
2023-04-02T10:59:57.852Z,49.14
2023-04-02T11:10:00.884Z,48.01
2023-04-02T11:21:01.445Z,47.06
2023-04-02T11:31:04.793Z,47.41
2023-04-02T11:41:06.960Z,48.07
2023-04-02T11:51:22.306Z,46.77
2023-04-02T12:01:45.413Z,48.36
2023-04-02T12:11:48.135Z,47.25
2023-04-02T12:21:53.016Z,44.79
2023-04-02T12:31:58.931Z,45.38
2023-04-02T12:42:01.368Z,44.88
2023-04-02T12:52:18.485Z,43.41
2023-04-02T13:02:25.404Z,41.93
2023-04-02T13:12:27.468Z,42.94
2023-04-02T13:22:31.607Z,41.44
2023-04-02T13:32:33.847Z,42.31
2023-04-02T13:42:36.663Z,40.72
2023-04-02T13:52:38.819Z,41.39
2023-04-02T14:02:44.417Z,40.30
2023-04-02T14:12:57.272Z,39.18
2023-04-02T14:23:26.002Z,38.89
2023-04-02T14:33:34.055Z,38.51
2023-04-02T14:43:52.220Z,37.76
2023-04-02T14:54:18.476Z,38.56
2023-04-02T15:04:26.626Z,38.63
2023-04-02T15:14:35.581Z,38.58
2023-04-02T15:24:51.814Z,37.49
2023-04-02T15:35:08.176Z,37.92
2023-04-02T15:45:27.488Z,38.20
2023-04-02T15:55:46.295Z,37.44
2023-04-02T16:06:17.393Z,39.00
2023-04-02T16:16:23.298Z,39.56
2023-04-02T16:26:39.259Z,37.60
2023-04-02T16:36:53.700Z,36.88
2023-04-02T16:47:18.575Z,38.44
2023-04-02T16:57:30.418Z,37.93
2023-04-02T17:07:47.581Z,39.36
2023-04-02T17:17:50.220Z,37.75
2023-04-02T17:27:55.841Z,40.20
2023-04-02T17:38:24.455Z,37.83
2023-04-02T17:48:35.503Z,40.43
2023-04-02T17:59:11.354Z,38.45
2023-04-02T18:09:32.677Z,37.83
2023-04-02T18:19:50.965Z,38.49
2023-04-02T18:30:03.498Z,39.52
2023-04-02T18:40:26.992Z,40.08
2023-04-02T18:50:35.021Z,41.61
2023-04-02T19:00:43.659Z,42.54
2023-04-02T19:10:51.412Z,42.41
2023-04-02T19:21:01.344Z,42.33
2023-04-02T19:31:16.173Z,42.89
2023-04-02T19:41:31.300Z,43.40
2023-04-02T19:51:34.512Z,43.07
2023-04-02T20:01:36.804Z,44.83
2023-04-02T20:11:40.207Z,45.28
2023-04-02T20:21:42.404Z,45.17
2023-04-02T20:31:44.592Z,45.06
2023-04-02T20:41:47.258Z,45.74
2023-04-02T20:51:49.627Z,45.58
2023-04-02T21:01:54.941Z,47.69
2023-04-02T21:11:57.276Z,46.65
2023-04-02T21:21:59.451Z,46.67
2023-04-02T21:32:08.328Z,47.01
2023-04-02T21:42:16.859Z,48.35
2023-04-02T21:52:20.593Z,47.87
2023-04-02T22:02:24.007Z,49.60
2023-04-02T22:12:28.899Z,48.35
2023-04-02T22:22:33.098Z,49.46
2023-04-02T22:32:36.839Z,50.54
2023-04-02T22:42:39.118Z,51.40
2023-04-02T22:52:44.758Z,51.32
2023-04-02T23:02:47.060Z,51.28
2023-04-02T23:12:49.714Z,51.47
2023-04-02T23:22:53.112Z,52.39
2023-04-02T23:32:55.428Z,52.78
2023-04-02T23:42:57.770Z,53.64
2023-04-02T23:53:01.004Z,50.95
